AAL2437 KCVG-KAVL
Flight info
| Callsign | AAL2437 |
|---|---|
| Flight time | N/A |
| Altitude | 29000 |
| Route | KENLN6 SHIPR SOT |
| Aircraft | A320/M-SDE3FGHIRWY/LB1 |
Departure
| Time | N/A |
|---|---|
| Airport | Cincinnati Northern Kentucky International Airport (KCVG) |
Arrival
| Time | 2026-04-13 22:28 |
|---|---|
| Airport | Asheville Regional Airport (KAVL) |
| Time | Latitude | Longitude | Altitude | Speed | Heading |
|---|---|---|---|---|---|
| 2026-04-13 22:06 | 37.07920 | -83.88348 | 29242 ft | 427 kts | 157° |
| 2026-04-13 22:06 | 37.05285 | -83.86621 | 29239 ft | 427 kts | 157° |
| 2026-04-13 22:07 | 37.00080 | -83.83204 | 29234 ft | 427 kts | 157° |
| 2026-04-13 22:07 | 36.94826 | -83.79757 | 29227 ft | 427 kts | 157° |
| 2026-04-13 22:08 | 36.89559 | -83.76318 | 29220 ft | 427 kts | 157° |
| 2026-04-13 22:08 | 36.84288 | -83.72887 | 29210 ft | 427 kts | 157° |
| 2026-04-13 22:09 | 36.79027 | -83.69456 | 29217 ft | 427 kts | 157° |
| 2026-04-13 22:09 | 36.73770 | -83.66031 | 29216 ft | 427 kts | 157° |
| 2026-04-13 22:09 | 36.71153 | -83.64324 | 29011 ft | 421 kts | 157° |
| 2026-04-13 22:10 | 36.68585 | -83.62649 | 28752 ft | 412 kts | 157° |
| 2026-04-13 22:10 | 36.66064 | -83.61007 | 28486 ft | 406 kts | 157° |
| 2026-04-13 22:10 | 36.63573 | -83.59389 | 28221 ft | 403 kts | 157° |
| 2026-04-13 22:10 | 36.61086 | -83.57781 | 27960 ft | 401 kts | 157° |
| 2026-04-13 22:11 | 36.58618 | -83.56189 | 27708 ft | 399 kts | 157° |
| 2026-04-13 22:11 | 36.56159 | -83.54600 | 27460 ft | 397 kts | 157° |
| 2026-04-13 22:11 | 36.53722 | -83.53024 | 27160 ft | 393 kts | 157° |
| 2026-04-13 22:11 | 36.51305 | -83.51457 | 26718 ft | 391 kts | 157° |
| 2026-04-13 22:12 | 36.48932 | -83.49920 | 26272 ft | 389 kts | 157° |
| 2026-04-13 22:12 | 36.46535 | -83.48371 | 25812 ft | 388 kts | 157° |
| 2026-04-13 22:12 | 36.44141 | -83.46828 | 25345 ft | 387 kts | 157° |
| 2026-04-13 22:12 | 36.41752 | -83.45292 | 24869 ft | 387 kts | 157° |
| 2026-04-13 22:13 | 36.39362 | -83.43753 | 24382 ft | 387 kts | 157° |
| 2026-04-13 22:13 | 36.36969 | -83.42213 | 23891 ft | 387 kts | 157° |
| 2026-04-13 22:13 | 36.34576 | -83.40676 | 23349 ft | 387 kts | 157° |
| 2026-04-13 22:13 | 36.32191 | -83.39143 | 22861 ft | 385 kts | 157° |
| 2026-04-13 22:14 | 36.29820 | -83.37619 | 22396 ft | 383 kts | 157° |
| 2026-04-13 22:14 | 36.27460 | -83.36106 | 21924 ft | 381 kts | 157° |
| 2026-04-13 22:14 | 36.25109 | -83.34601 | 21457 ft | 380 kts | 157° |
| 2026-04-13 22:14 | 36.22769 | -83.33103 | 20995 ft | 378 kts | 157° |
| 2026-04-13 22:15 | 36.20433 | -83.31609 | 20534 ft | 377 kts | 157° |
| 2026-04-13 22:15 | 36.18112 | -83.30126 | 20072 ft | 376 kts | 157° |
| 2026-04-13 22:15 | 36.15791 | -83.28639 | 19615 ft | 375 kts | 157° |
| 2026-04-13 22:15 | 36.13483 | -83.27159 | 19255 ft | 371 kts | 157° |
| 2026-04-13 22:16 | 36.11191 | -83.25689 | 18805 ft | 370 kts | 157° |
| 2026-04-13 22:16 | 36.08907 | -83.24230 | 18276 ft | 371 kts | 157° |
| 2026-04-13 22:16 | 36.06639 | -83.22784 | 17992 ft | 364 kts | 157° |
| 2026-04-13 22:16 | 36.04393 | -83.21354 | 17530 ft | 362 kts | 157° |
| 2026-04-13 22:17 | 36.02160 | -83.19936 | 17102 ft | 360 kts | 157° |
| 2026-04-13 22:17 | 35.99941 | -83.18522 | 16697 ft | 358 kts | 157° |
| 2026-04-13 22:17 | 35.97762 | -83.17133 | 16315 ft | 355 kts | 157° |
| 2026-04-13 22:17 | 35.95594 | -83.15752 | 15941 ft | 353 kts | 157° |
| 2026-04-13 22:18 | 35.93407 | -83.14360 | 15567 ft | 350 kts | 156° |
| 2026-04-13 22:18 | 35.91254 | -83.12990 | 15187 ft | 348 kts | 156° |
| 2026-04-13 22:18 | 35.89109 | -83.11627 | 14815 ft | 346 kts | 156° |
| 2026-04-13 22:18 | 35.86975 | -83.10275 | 14448 ft | 344 kts | 156° |
| 2026-04-13 22:19 | 35.84856 | -83.08935 | 14094 ft | 341 kts | 156° |
| 2026-04-13 22:19 | 35.82765 | -83.07613 | 13422 ft | 335 kts | 156° |
| 2026-04-13 22:19 | 35.80756 | -83.06187 | 12701 ft | 334 kts | 145° |
| 2026-04-13 22:19 | 35.79118 | -83.04184 | 12096 ft | 331 kts | 128° |
| 2026-04-13 22:20 | 35.78013 | -83.01743 | 11672 ft | 326 kts | 113° |
| 2026-04-13 22:20 | 35.77242 | -82.99118 | 11261 ft | 326 kts | 111° |
| 2026-04-13 22:20 | 35.76477 | -82.96490 | 10852 ft | 326 kts | 111° |
| 2026-04-13 22:20 | 35.75716 | -82.93872 | 10461 ft | 324 kts | 112° |
| 2026-04-13 22:21 | 35.74962 | -82.91281 | 10154 ft | 318 kts | 112° |
| 2026-04-13 22:21 | 35.74227 | -82.88757 | 9680 ft | 306 kts | 112° |
| 2026-04-13 22:21 | 35.73522 | -82.86340 | 9297 ft | 297 kts | 112° |
| 2026-04-13 22:21 | 35.72821 | -82.83947 | 8857 ft | 296 kts | 112° |
| 2026-04-13 22:22 | 35.72125 | -82.81571 | 8470 ft | 294 kts | 112° |
| 2026-04-13 22:22 | 35.71431 | -82.79229 | 8011 ft | 290 kts | 112° |
| 2026-04-13 22:22 | 35.70760 | -82.76933 | 7558 ft | 283 kts | 112° |
| 2026-04-13 22:22 | 35.70094 | -82.74649 | 7126 ft | 284 kts | 112° |
| 2026-04-13 22:23 | 35.69425 | -82.72366 | 6712 ft | 284 kts | 112° |
| 2026-04-13 22:23 | 35.68756 | -82.70081 | 6252 ft | 285 kts | 112° |
| 2026-04-13 22:23 | 35.68072 | -82.67800 | 5846 ft | 282 kts | 116° |
| 2026-04-13 22:23 | 35.67036 | -82.65804 | 5579 ft | 270 kts | 135° |
| 2026-04-13 22:24 | 35.65657 | -82.64351 | 5511 ft | 253 kts | 148° |
| 2026-04-13 22:24 | 35.64115 | -82.63399 | 5387 ft | 253 kts | 162° |
| 2026-04-13 22:24 | 35.62422 | -82.62660 | 5296 ft | 261 kts | 163° |
| 2026-04-13 22:24 | 35.60701 | -82.61916 | 5143 ft | 261 kts | 162° |
| 2026-04-13 22:25 | 35.59033 | -82.61165 | 5035 ft | 250 kts | 162° |
| 2026-04-13 22:25 | 35.57426 | -82.60425 | 4809 ft | 243 kts | 162° |
| 2026-04-13 22:25 | 35.55861 | -82.59716 | 4588 ft | 238 kts | 161° |
| 2026-04-13 22:25 | 35.54301 | -82.59015 | 4212 ft | 239 kts | 162° |
| 2026-04-13 22:26 | 35.52775 | -82.58321 | 3876 ft | 228 kts | 162° |
| 2026-04-13 22:26 | 35.51325 | -82.57675 | 3672 ft | 213 kts | 164° |
| 2026-04-13 22:26 | 35.49981 | -82.57064 | 3538 ft | 199 kts | 163° |
| 2026-04-13 22:26 | 35.48728 | -82.56486 | 3272 ft | 184 kts | 161° |
| 2026-04-13 22:27 | 35.47599 | -82.55976 | 2976 ft | 170 kts | 162° |
| 2026-04-13 22:27 | 35.46515 | -82.55497 | 2641 ft | 160 kts | 162° |
| 2026-04-13 22:27 | 35.45482 | -82.55044 | 2412 ft | 153 kts | 163° |
| 2026-04-13 22:27 | 35.44513 | -82.54599 | 2157 ft | 142 kts | 162° |
| 2026-04-13 22:28 | 35.43794 | -82.54289 | 2149 ft | 85 kts | 160° |
| 2026-04-13 22:28 | 35.43343 | -82.54084 | 2146 ft | 54 kts | 159° |
| 2026-04-13 22:28 | 35.43117 | -82.53966 | 2149 ft | 25 kts | 138° |
| 2026-04-13 22:28 | 35.43118 | -82.53841 | 2150 ft | 15 kts | 354° |
| 2026-04-13 22:29 | 35.43214 | -82.53884 | 2150 ft | 14 kts | 339° |
| 2026-04-13 22:29 | 35.43301 | -82.53922 | 2149 ft | 12 kts | 348° |
| 2026-04-13 22:29 | 35.43377 | -82.53897 | 2149 ft | 11 kts | 16° |
| 2026-04-13 22:29 | 35.43440 | -82.53914 | 2148 ft | 9 kts | 339° |
| 2026-04-13 22:30 | 35.43492 | -82.53930 | 2150 ft | 7 kts | 349° |
| 2026-04-13 22:30 | 35.43513 | -82.53924 | 2150 ft | 1 kts | 50° |
| 2026-04-13 22:30 | 35.43514 | -82.53919 | 2150 ft | 0 kts | 65° |
| 2026-04-13 22:30 | 35.43517 | -82.53899 | 2150 ft | 2 kts | 87° |
| 2026-04-13 22:31 | 35.43514 | -82.53884 | 2150 ft | 1 kts | 96° |